sensor_id;sensor_type;location;lat;lon;timestamp;P1;durP1;ratioP1;P2;durP2;ratioP2
5622;SDS011;2833;50.432;10.706;2023-04-01T00:00:18;4.03;;;1.33;;
5622;SDS011;2833;50.432;10.706;2023-04-01T00:02:43;2.67;;;1.10;;
5622;SDS011;2833;50.432;10.706;2023-04-01T00:05:09;1.23;;;1.13;;
5622;SDS011;2833;50.432;10.706;2023-04-01T00:07:35;1.47;;;1.30;;
5622;SDS011;2833;50.432;10.706;2023-04-01T00:10:00;1.13;;;1.10;;
5622;SDS011;2833;50.432;10.706;2023-04-01T00:12:25;9.30;;;1.60;;
5622;SDS011;2833;50.432;10.706;2023-04-01T00:14:50;2.73;;;1.40;;
5622;SDS011;2833;50.432;10.706;2023-04-01T00:17:16;1.60;;;0.97;;
5622;SDS011;2833;50.432;10.706;2023-04-01T00:19:41;1.37;;;1.10;;
5622;SDS011;2833;50.432;10.706;2023-04-01T00:22:06;3.37;;;1.30;;
5622;SDS011;2833;50.432;10.706;2023-04-01T00:24:34;1.20;;;1.10;;
5622;SDS011;2833;50.432;10.706;2023-04-01T00:26:59;1.83;;;1.30;;
5622;SDS011;2833;50.432;10.706;2023-04-01T00:29:24;1.93;;;1.27;;
5622;SDS011;2833;50.432;10.706;2023-04-01T00:31:54;1.13;;;1.00;;
5622;SDS011;2833;50.432;10.706;2023-04-01T00:34:20;2.70;;;1.20;;
5622;SDS011;2833;50.432;10.706;2023-04-01T00:36:46;3.37;;;1.17;;
5622;SDS011;2833;50.432;10.706;2023-04-01T00:39:11;1.33;;;1.13;;
5622;SDS011;2833;50.432;10.706;2023-04-01T00:41:36;1.40;;;1.30;;
5622;SDS011;2833;50.432;10.706;2023-04-01T00:44:11;1.13;;;1.03;;
5622;SDS011;2833;50.432;10.706;2023-04-01T00:46:38;1.30;;;1.20;;
5622;SDS011;2833;50.432;10.706;2023-04-01T00:49:04;2.07;;;0.87;;
5622;SDS011;2833;50.432;10.706;2023-04-01T00:51:29;1.43;;;1.10;;
5622;SDS011;2833;50.432;10.706;2023-04-01T00:53:55;1.10;;;0.93;;
5622;SDS011;2833;50.432;10.706;2023-04-01T00:56:21;2.67;;;1.03;;
5622;SDS011;2833;50.432;10.706;2023-04-01T00:58:49;1.90;;;1.03;;
5622;SDS011;2833;50.432;10.706;2023-04-01T01:01:15;1.00;;;0.90;;
5622;SDS011;2833;50.432;10.706;2023-04-01T01:03:40;1.23;;;1.00;;
5622;SDS011;2833;50.432;10.706;2023-04-01T01:06:18;1.23;;;1.00;;
5622;SDS011;2833;50.432;10.706;2023-04-01T01:11:42;1.47;;;1.07;;
5622;SDS011;2833;50.432;10.706;2023-04-01T01:14:09;2.27;;;1.27;;
5622;SDS011;2833;50.432;10.706;2023-04-01T01:16:45;1.10;;;0.90;;
5622;SDS011;2833;50.432;10.706;2023-04-01T01:24:29;2.47;;;1.27;;
5622;SDS011;2833;50.432;10.706;2023-04-01T01:37:03;1.63;;;1.07;;
5622;SDS011;2833;50.432;10.706;2023-04-01T01:39:31;1.70;;;1.10;;
5622;SDS011;2833;50.432;10.706;2023-04-01T01:41:57;1.73;;;1.27;;
5622;SDS011;2833;50.432;10.706;2023-04-01T01:44:25;1.53;;;1.43;;
5622;SDS011;2833;50.432;10.706;2023-04-01T01:46:52;4.70;;;1.43;;
5622;SDS011;2833;50.432;10.706;2023-04-01T01:49:18;1.10;;;1.00;;
5622;SDS011;2833;50.432;10.706;2023-04-01T01:51:43;2.20;;;1.07;;
5622;SDS011;2833;50.432;10.706;2023-04-01T01:54:18;1.30;;;1.00;;
5622;SDS011;2833;50.432;10.706;2023-04-01T01:56:44;2.37;;;1.20;;
5622;SDS011;2833;50.432;10.706;2023-04-01T01:59:11;1.53;;;1.13;;
5622;SDS011;2833;50.432;10.706;2023-04-01T02:01:37;2.90;;;1.23;;
5622;SDS011;2833;50.432;10.706;2023-04-01T02:04:04;1.80;;;1.00;;
5622;SDS011;2833;50.432;10.706;2023-04-01T02:06:30;1.30;;;1.10;;
5622;SDS011;2833;50.432;10.706;2023-04-01T02:08:59;3.63;;;1.30;;
5622;SDS011;2833;50.432;10.706;2023-04-01T02:11:27;1.77;;;1.17;;
5622;SDS011;2833;50.432;10.706;2023-04-01T02:13:55;1.50;;;1.40;;
5622;SDS011;2833;50.432;10.706;2023-04-01T02:16:32;3.43;;;1.20;;
5622;SDS011;2833;50.432;10.706;2023-04-01T02:18:59;2.30;;;1.10;;
5622;SDS011;2833;50.432;10.706;2023-04-01T02:21:27;1.20;;;1.20;;
5622;SDS011;2833;50.432;10.706;2023-04-01T02:23:53;7.03;;;1.30;;
5622;SDS011;2833;50.432;10.706;2023-04-01T02:26:19;2.40;;;1.20;;
5622;SDS011;2833;50.432;10.706;2023-04-01T02:28:45;2.27;;;1.20;;
5622;SDS011;2833;50.432;10.706;2023-04-01T02:31:11;2.10;;;1.30;;
5622;SDS011;2833;50.432;10.706;2023-04-01T02:33:38;0.90;;;0.90;;
5622;SDS011;2833;50.432;10.706;2023-04-01T02:36:03;2.10;;;1.40;;
5622;SDS011;2833;50.432;10.706;2023-04-01T02:38:29;3.83;;;1.20;;
5622;SDS011;2833;50.432;10.706;2023-04-01T02:40:58;2.53;;;1.27;;
5622;SDS011;2833;50.432;10.706;2023-04-01T02:43:24;1.33;;;0.90;;
5622;SDS011;2833;50.432;10.706;2023-04-01T02:45:49;1.57;;;1.20;;
5622;SDS011;2833;50.432;10.706;2023-04-01T02:48:14;1.30;;;1.10;;
5622;SDS011;2833;50.432;10.706;2023-04-01T02:50:40;2.33;;;1.30;;
5622;SDS011;2833;50.432;10.706;2023-04-01T02:53:05;1.47;;;1.10;;
5622;SDS011;2833;50.432;10.706;2023-04-01T02:55:31;2.33;;;1.80;;
5622;SDS011;2833;50.432;10.706;2023-04-01T02:57:56;4.30;;;1.43;;
5622;SDS011;2833;50.432;10.706;2023-04-01T03:00:22;2.97;;;1.50;;
5622;SDS011;2833;50.432;10.706;2023-04-01T03:02:47;2.33;;;1.20;;
5622;SDS011;2833;50.432;10.706;2023-04-01T03:05:12;2.43;;;1.40;;
5622;SDS011;2833;50.432;10.706;2023-04-01T03:07:37;1.67;;;1.23;;
5622;SDS011;2833;50.432;10.706;2023-04-01T03:10:03;2.30;;;1.10;;
5622;SDS011;2833;50.432;10.706;2023-04-01T03:12:28;1.47;;;1.17;;
5622;SDS011;2833;50.432;10.706;2023-04-01T03:14:53;3.10;;;1.20;;
5622;SDS011;2833;50.432;10.706;2023-04-01T03:17:18;1.10;;;1.00;;
5622;SDS011;2833;50.432;10.706;2023-04-01T03:19:43;1.20;;;1.10;;
5622;SDS011;2833;50.432;10.706;2023-04-01T03:22:10;5.40;;;1.40;;
5622;SDS011;2833;50.432;10.706;2023-04-01T03:24:35;3.17;;;1.17;;
5622;SDS011;2833;50.432;10.706;2023-04-01T03:27:00;1.23;;;1.10;;
5622;SDS011;2833;50.432;10.706;2023-04-01T03:29:26;3.53;;;1.27;;
5622;SDS011;2833;50.432;10.706;2023-04-01T03:31:51;7.63;;;1.33;;
5622;SDS011;2833;50.432;10.706;2023-04-01T03:36:44;1.40;;;1.17;;
5622;SDS011;2833;50.432;10.706;2023-04-01T03:39:10;2.50;;;1.20;;
5622;SDS011;2833;50.432;10.706;2023-04-01T03:41:36;1.40;;;1.00;;
5622;SDS011;2833;50.432;10.706;2023-04-01T03:44:02;1.10;;;1.00;;
5622;SDS011;2833;50.432;10.706;2023-04-01T03:46:27;1.17;;;1.07;;
5622;SDS011;2833;50.432;10.706;2023-04-01T03:48:52;1.43;;;1.13;;
5622;SDS011;2833;50.432;10.706;2023-04-01T03:51:17;4.57;;;1.20;;
5622;SDS011;2833;50.432;10.706;2023-04-01T03:53:43;1.50;;;1.07;;
5622;SDS011;2833;50.432;10.706;2023-04-01T03:56:08;2.80;;;1.50;;
5622;SDS011;2833;50.432;10.706;2023-04-01T03:58:33;1.47;;;1.10;;
5622;SDS011;2833;50.432;10.706;2023-04-01T04:00:59;2.00;;;1.10;;
5622;SDS011;2833;50.432;10.706;2023-04-01T04:03:24;5.83;;;1.40;;
5622;SDS011;2833;50.432;10.706;2023-04-01T04:05:49;2.10;;;1.20;;
5622;SDS011;2833;50.432;10.706;2023-04-01T04:08:15;1.20;;;1.00;;
5622;SDS011;2833;50.432;10.706;2023-04-01T04:10:40;2.90;;;1.30;;
5622;SDS011;2833;50.432;10.706;2023-04-01T04:13:06;1.40;;;1.23;;
5622;SDS011;2833;50.432;10.706;2023-04-01T04:15:31;1.00;;;1.00;;
5622;SDS011;2833;50.432;10.706;2023-04-01T04:17:56;5.63;;;1.43;;
5622;SDS011;2833;50.432;10.706;2023-04-01T04:20:21;1.40;;;0.97;;
5622;SDS011;2833;50.432;10.706;2023-04-01T04:22:47;4.63;;;1.30;;
5622;SDS011;2833;50.432;10.706;2023-04-01T04:25:12;3.50;;;1.07;;
5622;SDS011;2833;50.432;10.706;2023-04-01T04:27:37;1.10;;;0.90;;
5622;SDS011;2833;50.432;10.706;2023-04-01T04:30:03;1.33;;;1.20;;
5622;SDS011;2833;50.432;10.706;2023-04-01T04:32:28;4.57;;;1.20;;
5622;SDS011;2833;50.432;10.706;2023-04-01T04:34:53;5.00;;;1.17;;
5622;SDS011;2833;50.432;10.706;2023-04-01T04:37:18;1.00;;;1.00;;
5622;SDS011;2833;50.432;10.706;2023-04-01T04:39:43;3.63;;;1.00;;
5622;SDS011;2833;50.432;10.706;2023-04-01T04:42:09;1.90;;;0.97;;
5622;SDS011;2833;50.432;10.706;2023-04-01T04:44:34;1.20;;;1.10;;
5622;SDS011;2833;50.432;10.706;2023-04-01T04:46:59;4.43;;;1.30;;
5622;SDS011;2833;50.432;10.706;2023-04-01T04:49:24;1.37;;;1.00;;
5622;SDS011;2833;50.432;10.706;2023-04-01T04:51:50;2.67;;;1.27;;
5622;SDS011;2833;50.432;10.706;2023-04-01T04:54:15;1.00;;;0.90;;
5622;SDS011;2833;50.432;10.706;2023-04-01T04:56:40;1.20;;;1.07;;
5622;SDS011;2833;50.432;10.706;2023-04-01T04:59:05;2.13;;;0.87;;
5622;SDS011;2833;50.432;10.706;2023-04-01T05:01:31;1.20;;;1.10;;
5622;SDS011;2833;50.432;10.706;2023-04-01T05:03:58;1.03;;;1.03;;
5622;SDS011;2833;50.432;10.706;2023-04-01T05:06:23;3.57;;;1.13;;
5622;SDS011;2833;50.432;10.706;2023-04-01T05:08:50;5.03;;;1.30;;
5622;SDS011;2833;50.432;10.706;2023-04-01T05:11:19;3.40;;;1.10;;
5622;SDS011;2833;50.432;10.706;2023-04-01T05:13:44;1.13;;;1.03;;
5622;SDS011;2833;50.432;10.706;2023-04-01T05:16:19;2.50;;;1.43;;
5622;SDS011;2833;50.432;10.706;2023-04-01T05:18:45;2.20;;;1.10;;
5622;SDS011;2833;50.432;10.706;2023-04-01T05:21:11;4.77;;;1.03;;
5622;SDS011;2833;50.432;10.706;2023-04-01T05:23:37;1.80;;;1.30;;
5622;SDS011;2833;50.432;10.706;2023-04-01T05:26:05;2.80;;;1.00;;
5622;SDS011;2833;50.432;10.706;2023-04-01T05:28:31;6.50;;;1.20;;
5622;SDS011;2833;50.432;10.706;2023-04-01T05:30:58;1.63;;;1.00;;
5622;SDS011;2833;50.432;10.706;2023-04-01T05:33:23;1.47;;;1.27;;
5622;SDS011;2833;50.432;10.706;2023-04-01T05:35:48;2.10;;;1.23;;
5622;SDS011;2833;50.432;10.706;2023-04-01T05:38:13;4.20;;;2.20;;
5622;SDS011;2833;50.432;10.706;2023-04-01T05:40:38;4.93;;;1.30;;
5622;SDS011;2833;50.432;10.706;2023-04-01T05:43:03;1.67;;;1.50;;
5622;SDS011;2833;50.432;10.706;2023-04-01T05:45:29;6.60;;;2.10;;
5622;SDS011;2833;50.432;10.706;2023-04-01T05:47:54;3.00;;;1.40;;
5622;SDS011;2833;50.432;10.706;2023-04-01T05:50:19;1.43;;;1.00;;
5622;SDS011;2833;50.432;10.706;2023-04-01T05:52:45;2.70;;;1.33;;
5622;SDS011;2833;50.432;10.706;2023-04-01T05:55:10;2.73;;;1.30;;
5622;SDS011;2833;50.432;10.706;2023-04-01T05:57:35;2.70;;;1.57;;
5622;SDS011;2833;50.432;10.706;2023-04-01T06:00:01;3.70;;;1.73;;
5622;SDS011;2833;50.432;10.706;2023-04-01T06:02:26;1.87;;;1.33;;
5622;SDS011;2833;50.432;10.706;2023-04-01T06:05:01;1.37;;;1.20;;
5622;SDS011;2833;50.432;10.706;2023-04-01T06:07:27;3.63;;;1.37;;
5622;SDS011;2833;50.432;10.706;2023-04-01T06:09:53;2.60;;;1.20;;
5622;SDS011;2833;50.432;10.706;2023-04-01T06:12:24;1.27;;;1.10;;
5622;SDS011;2833;50.432;10.706;2023-04-01T06:22:40;4.30;;;1.93;;
5622;SDS011;2833;50.432;10.706;2023-04-01T06:25:15;1.83;;;1.57;;
5622;SDS011;2833;50.432;10.706;2023-04-01T06:30:34;1.43;;;1.10;;
5622;SDS011;2833;50.432;10.706;2023-04-01T06:38:05;2.37;;;1.60;;
5622;SDS011;2833;50.432;10.706;2023-04-01T06:40:38;4.93;;;1.60;;
5622;SDS011;2833;50.432;10.706;2023-04-01T06:43:14;4.53;;;1.90;;
5622;SDS011;2833;50.432;10.706;2023-04-01T06:55:43;2.30;;;1.00;;
5622;SDS011;2833;50.432;10.706;2023-04-01T06:58:56;3.50;;;1.50;;
5622;SDS011;2833;50.432;10.706;2023-04-01T07:00:57;3.33;;;1.40;;
5622;SDS011;2833;50.432;10.706;2023-04-01T07:03:26;1.33;;;1.27;;
5622;SDS011;2833;50.432;10.706;2023-04-01T07:05:56;1.63;;;1.40;;
5622;SDS011;2833;50.432;10.706;2023-04-01T07:08:23;5.53;;;2.30;;
5622;SDS011;2833;50.432;10.706;2023-04-01T07:11:25;2.47;;;1.97;;
5622;SDS011;2833;50.432;10.706;2023-04-01T07:16:12;2.33;;;1.50;;
5622;SDS011;2833;50.432;10.706;2023-04-01T07:18:50;2.20;;;1.57;;
5622;SDS011;2833;50.432;10.706;2023-04-01T07:21:28;1.20;;;1.10;;
5622;SDS011;2833;50.432;10.706;2023-04-01T07:23:54;1.00;;;1.00;;
5622;SDS011;2833;50.432;10.706;2023-04-01T07:26:23;1.30;;;1.20;;
5622;SDS011;2833;50.432;10.706;2023-04-01T07:28:48;2.57;;;1.53;;
5622;SDS011;2833;50.432;10.706;2023-04-01T07:33:58;4.77;;;3.20;;
5622;SDS011;2833;50.432;10.706;2023-04-01T07:36:48;2.13;;;1.93;;
5622;SDS011;2833;50.432;10.706;2023-04-01T07:39:15;2.70;;;1.53;;
5622;SDS011;2833;50.432;10.706;2023-04-01T07:44:10;1.58;;;1.48;;
5622;SDS011;2833;50.432;10.706;2023-04-01T07:49:08;5.33;;;3.50;;
5622;SDS011;2833;50.432;10.706;2023-04-01T07:54:08;3.37;;;2.60;;
5622;SDS011;2833;50.432;10.706;2023-04-01T08:19:41;1.50;;;1.40;;
5622;SDS011;2833;50.432;10.706;2023-04-01T08:22:12;1.83;;;1.30;;
5622;SDS011;2833;50.432;10.706;2023-04-01T08:27:06;5.27;;;1.60;;
5622;SDS011;2833;50.432;10.706;2023-04-01T08:32:27;3.00;;;1.40;;
5622;SDS011;2833;50.432;10.706;2023-04-01T08:35:02;1.60;;;1.27;;
5622;SDS011;2833;50.432;10.706;2023-04-01T08:37:32;1.90;;;1.10;;
5622;SDS011;2833;50.432;10.706;2023-04-01T08:40:02;1.23;;;1.00;;
5622;SDS011;2833;50.432;10.706;2023-04-01T08:42:57;4.73;;;3.63;;
5622;SDS011;2833;50.432;10.706;2023-04-01T08:58:30;5.40;;;1.50;;
5622;SDS011;2833;50.432;10.706;2023-04-01T09:01:02;1.47;;;1.27;;
5622;SDS011;2833;50.432;10.706;2023-04-01T09:06:12;10.73;;;6.50;;
5622;SDS011;2833;50.432;10.706;2023-04-01T09:16:59;4.30;;;1.40;;
5622;SDS011;2833;50.432;10.706;2023-04-01T09:19:30;1.33;;;1.20;;
5622;SDS011;2833;50.432;10.706;2023-04-01T09:27:25;5.37;;;4.63;;
5622;SDS011;2833;50.432;10.706;2023-04-01T09:40:33;2.17;;;1.90;;
5622;SDS011;2833;50.432;10.706;2023-04-01T09:53:23;3.63;;;2.50;;
5622;SDS011;2833;50.432;10.706;2023-04-01T10:38:06;1.87;;;1.70;;
5622;SDS011;2833;50.432;10.706;2023-04-01T10:49:14;10.77;;;6.67;;
5622;SDS011;2833;50.432;10.706;2023-04-01T11:01:27;7.30;;;4.50;;
5622;SDS011;2833;50.432;10.706;2023-04-01T11:07:00;12.67;;;4.87;;
5622;SDS011;2833;50.432;10.706;2023-04-01T11:17:17;14.17;;;5.93;;
5622;SDS011;2833;50.432;10.706;2023-04-01T11:20:08;22.47;;;7.30;;
5622;SDS011;2833;50.432;10.706;2023-04-01T11:25:18;16.30;;;6.77;;
5622;SDS011;2833;50.432;10.706;2023-04-01T11:33:20;10.30;;;4.77;;
5622;SDS011;2833;50.432;10.706;2023-04-01T11:36:36;9.43;;;3.97;;
5622;SDS011;2833;50.432;10.706;2023-04-01T11:43:40;22.53;;;7.63;;
5622;SDS011;2833;50.432;10.706;2023-04-01T11:46:12;23.40;;;8.20;;
5622;SDS011;2833;50.432;10.706;2023-04-01T11:51:19;16.53;;;5.93;;
5622;SDS011;2833;50.432;10.706;2023-04-01T11:56:34;9.03;;;3.63;;
5622;SDS011;2833;50.432;10.706;2023-04-01T12:09:12;3.83;;;2.67;;
5622;SDS011;2833;50.432;10.706;2023-04-01T12:21:38;6.20;;;3.40;;
5622;SDS011;2833;50.432;10.706;2023-04-01T12:29:30;14.33;;;5.47;;
5622;SDS011;2833;50.432;10.706;2023-04-01T12:34:49;7.50;;;4.30;;
5622;SDS011;2833;50.432;10.706;2023-04-01T12:37:28;13.00;;;5.50;;
5622;SDS011;2833;50.432;10.706;2023-04-01T12:42:51;2.30;;;1.67;;
5622;SDS011;2833;50.432;10.706;2023-04-01T12:55:45;2.33;;;2.13;;
5622;SDS011;2833;50.432;10.706;2023-04-01T13:08:51;1.80;;;1.67;;
5622;SDS011;2833;50.432;10.706;2023-04-01T13:11:31;2.40;;;1.70;;
5622;SDS011;2833;50.432;10.706;2023-04-01T13:14:18;2.27;;;1.70;;
5622;SDS011;2833;50.432;10.706;2023-04-01T13:16:48;1.80;;;1.70;;
5622;SDS011;2833;50.432;10.706;2023-04-01T13:19:21;1.93;;;1.70;;
5622;SDS011;2833;50.432;10.706;2023-04-01T13:22:10;2.80;;;2.40;;
5622;SDS011;2833;50.432;10.706;2023-04-01T13:24:41;2.60;;;2.30;;
5622;SDS011;2833;50.432;10.706;2023-04-01T13:27:16;2.20;;;2.00;;
5622;SDS011;2833;50.432;10.706;2023-04-01T13:45:02;2.80;;;2.33;;
5622;SDS011;2833;50.432;10.706;2023-04-01T13:50:25;2.97;;;2.67;;
5622;SDS011;2833;50.432;10.706;2023-04-01T13:52:55;1.40;;;1.30;;
5622;SDS011;2833;50.432;10.706;2023-04-01T13:55:46;2.00;;;1.83;;
5622;SDS011;2833;50.432;10.706;2023-04-01T14:00:42;3.00;;;1.90;;
5622;SDS011;2833;50.432;10.706;2023-04-01T14:15:46;1.70;;;1.60;;
5622;SDS011;2833;50.432;10.706;2023-04-01T14:29:11;2.00;;;1.90;;
5622;SDS011;2833;50.432;10.706;2023-04-01T14:50:14;2.47;;;1.77;;
5622;SDS011;2833;50.432;10.706;2023-04-01T14:55:20;4.83;;;3.83;;
5622;SDS011;2833;50.432;10.706;2023-04-01T15:05:47;2.40;;;1.57;;
5622;SDS011;2833;50.432;10.706;2023-04-01T15:08:33;9.27;;;4.07;;
5622;SDS011;2833;50.432;10.706;2023-04-01T15:19:08;4.37;;;2.70;;
5622;SDS011;2833;50.432;10.706;2023-04-01T15:27:32;13.33;;;8.63;;
5622;SDS011;2833;50.432;10.706;2023-04-01T15:32:00;13.30;;;8.10;;
5622;SDS011;2833;50.432;10.706;2023-04-01T15:42:17;2.30;;;1.90;;
5622;SDS011;2833;50.432;10.706;2023-04-01T15:44:46;6.90;;;4.63;;
5622;SDS011;2833;50.432;10.706;2023-04-01T15:49:53;4.97;;;3.20;;
5622;SDS011;2833;50.432;10.706;2023-04-01T16:05:34;1.33;;;1.17;;
5622;SDS011;2833;50.432;10.706;2023-04-01T16:20:54;1.20;;;1.10;;
5622;SDS011;2833;50.432;10.706;2023-04-01T16:26:02;2.63;;;1.87;;
5622;SDS011;2833;50.432;10.706;2023-04-01T16:28:31;1.73;;;1.63;;
5622;SDS011;2833;50.432;10.706;2023-04-01T16:31:09;2.70;;;2.20;;
5622;SDS011;2833;50.432;10.706;2023-04-01T16:34:21;5.53;;;3.30;;
5622;SDS011;2833;50.432;10.706;2023-04-01T16:36:22;10.50;;;5.73;;
5622;SDS011;2833;50.432;10.706;2023-04-01T16:41:29;4.30;;;2.63;;
5622;SDS011;2833;50.432;10.706;2023-04-01T16:43:56;3.50;;;3.20;;
5622;SDS011;2833;50.432;10.706;2023-04-01T16:46:40;3.47;;;2.87;;
5622;SDS011;2833;50.432;10.706;2023-04-01T16:54:26;1.87;;;1.77;;
5622;SDS011;2833;50.432;10.706;2023-04-01T16:57:02;2.30;;;2.10;;
5622;SDS011;2833;50.432;10.706;2023-04-01T16:59:37;4.60;;;3.23;;
5622;SDS011;2833;50.432;10.706;2023-04-01T17:07:06;4.27;;;2.53;;
5622;SDS011;2833;50.432;10.706;2023-04-01T17:19:41;4.00;;;2.77;;
5622;SDS011;2833;50.432;10.706;2023-04-01T17:22:13;5.03;;;4.10;;
5622;SDS011;2833;50.432;10.706;2023-04-01T17:35:11;2.47;;;2.20;;
5622;SDS011;2833;50.432;10.706;2023-04-01T17:57:52;13.53;;;6.23;;
5622;SDS011;2833;50.432;10.706;2023-04-01T18:08:17;27.03;;;15.03;;
5622;SDS011;2833;50.432;10.706;2023-04-01T18:10:55;9.03;;;5.50;;
5622;SDS011;2833;50.432;10.706;2023-04-01T18:13:25;10.40;;;6.20;;
5622;SDS011;2833;50.432;10.706;2023-04-01T18:18:35;6.93;;;4.43;;
5622;SDS011;2833;50.432;10.706;2023-04-01T18:21:18;4.70;;;2.87;;
5622;SDS011;2833;50.432;10.706;2023-04-01T18:24:02;6.23;;;4.20;;
5622;SDS011;2833;50.432;10.706;2023-04-01T18:26:31;5.03;;;3.33;;
5622;SDS011;2833;50.432;10.706;2023-04-01T18:31:43;5.23;;;3.97;;
5622;SDS011;2833;50.432;10.706;2023-04-01T18:34:15;38.43;;;15.37;;
5622;SDS011;2833;50.432;10.706;2023-04-01T18:37:31;77.23;;;30.87;;
5622;SDS011;2833;50.432;10.706;2023-04-01T18:39:37;45.83;;;25.80;;
5622;SDS011;2833;50.432;10.706;2023-04-01T18:44:38;5.87;;;4.80;;
5622;SDS011;2833;50.432;10.706;2023-04-01T18:50:14;3.30;;;2.80;;
5622;SDS011;2833;50.432;10.706;2023-04-01T18:52:43;4.43;;;4.03;;
5622;SDS011;2833;50.432;10.706;2023-04-01T18:57:54;3.00;;;2.43;;
5622;SDS011;2833;50.432;10.706;2023-04-01T19:05:18;3.70;;;3.40;;
5622;SDS011;2833;50.432;10.706;2023-04-01T19:07:49;1.27;;;1.27;;
5622;SDS011;2833;50.432;10.706;2023-04-01T19:20:42;3.47;;;3.17;;
5622;SDS011;2833;50.432;10.706;2023-04-01T19:25:57;1.73;;;1.63;;
5622;SDS011;2833;50.432;10.706;2023-04-01T19:38:53;7.63;;;5.18;;
5622;SDS011;2833;50.432;10.706;2023-04-01T19:41:32;2.03;;;1.93;;
5622;SDS011;2833;50.432;10.706;2023-04-01T19:46:29;4.70;;;3.00;;
5622;SDS011;2833;50.432;10.706;2023-04-01T19:51:25;1.92;;;1.33;;
5622;SDS011;2833;50.432;10.706;2023-04-01T19:56:22;2.63;;;1.20;;
5622;SDS011;2833;50.432;10.706;2023-04-01T19:58:55;2.40;;;1.37;;
5622;SDS011;2833;50.432;10.706;2023-04-01T20:01:22;1.50;;;1.40;;
5622;SDS011;2833;50.432;10.706;2023-04-01T20:03:55;1.37;;;1.27;;
5622;SDS011;2833;50.432;10.706;2023-04-01T20:06:41;1.93;;;1.60;;
5622;SDS011;2833;50.432;10.706;2023-04-01T20:09:11;1.20;;;1.20;;
5622;SDS011;2833;50.432;10.706;2023-04-01T20:14:14;1.40;;;1.30;;
5622;SDS011;2833;50.432;10.706;2023-04-01T20:16:58;1.27;;;1.17;;
5622;SDS011;2833;50.432;10.706;2023-04-01T20:19:34;1.30;;;1.23;;
5622;SDS011;2833;50.432;10.706;2023-04-01T20:22:00;1.43;;;1.33;;
5622;SDS011;2833;50.432;10.706;2023-04-01T20:27:14;2.93;;;2.33;;
5622;SDS011;2833;50.432;10.706;2023-04-01T20:35:13;4.13;;;2.67;;
5622;SDS011;2833;50.432;10.706;2023-04-01T20:37:52;1.30;;;1.20;;
5622;SDS011;2833;50.432;10.706;2023-04-01T20:40:34;2.90;;;2.50;;
5622;SDS011;2833;50.432;10.706;2023-04-01T20:45:56;2.40;;;2.20;;
5622;SDS011;2833;50.432;10.706;2023-04-01T20:50:54;0.90;;;0.90;;
5622;SDS011;2833;50.432;10.706;2023-04-01T20:53:28;1.40;;;1.30;;
5622;SDS011;2833;50.432;10.706;2023-04-01T21:03:57;2.07;;;1.67;;
5622;SDS011;2833;50.432;10.706;2023-04-01T21:06:37;1.40;;;1.30;;
5622;SDS011;2833;50.432;10.706;2023-04-01T21:09:11;8.43;;;5.13;;
5622;SDS011;2833;50.432;10.706;2023-04-01T21:11:53;18.63;;;9.50;;
5622;SDS011;2833;50.432;10.706;2023-04-01T21:17:15;3.60;;;2.40;;
5622;SDS011;2833;50.432;10.706;2023-04-01T21:19:55;12.50;;;7.70;;
5622;SDS011;2833;50.432;10.706;2023-04-01T21:22:29;12.20;;;5.83;;
5622;SDS011;2833;50.432;10.706;2023-04-01T21:25:00;8.10;;;4.50;;
5622;SDS011;2833;50.432;10.706;2023-04-01T21:32:40;5.80;;;3.27;;
5622;SDS011;2833;50.432;10.706;2023-04-01T21:37:36;2.80;;;2.13;;
5622;SDS011;2833;50.432;10.706;2023-04-01T21:45:20;2.83;;;2.30;;
5622;SDS011;2833;50.432;10.706;2023-04-01T21:50:19;2.10;;;1.90;;
5622;SDS011;2833;50.432;10.706;2023-04-01T21:53:00;1.87;;;1.73;;
5622;SDS011;2833;50.432;10.706;2023-04-01T21:55:36;3.20;;;2.10;;
5622;SDS011;2833;50.432;10.706;2023-04-01T22:06:05;3.87;;;1.90;;
5622;SDS011;2833;50.432;10.706;2023-04-01T22:08:36;2.30;;;2.10;;
5622;SDS011;2833;50.432;10.706;2023-04-01T22:13:34;1.90;;;1.80;;
5622;SDS011;2833;50.432;10.706;2023-04-01T22:16:16;2.07;;;1.90;;
5622;SDS011;2833;50.432;10.706;2023-04-01T22:18:46;2.47;;;2.10;;
5622;SDS011;2833;50.432;10.706;2023-04-01T22:21:29;2.80;;;2.10;;
5622;SDS011;2833;50.432;10.706;2023-04-01T22:26:53;1.77;;;1.67;;
5622;SDS011;2833;50.432;10.706;2023-04-01T22:29:28;3.17;;;2.07;;
5622;SDS011;2833;50.432;10.706;2023-04-01T22:32:00;2.93;;;2.20;;
5622;SDS011;2833;50.432;10.706;2023-04-01T22:34:38;4.40;;;3.57;;
5622;SDS011;2833;50.432;10.706;2023-04-01T22:39:47;2.15;;;1.95;;
5622;SDS011;2833;50.432;10.706;2023-04-01T22:44:51;3.30;;;2.27;;
5622;SDS011;2833;50.432;10.706;2023-04-01T22:50:27;6.57;;;1.80;;
5622;SDS011;2833;50.432;10.706;2023-04-01T22:52:44;1.80;;;1.70;;
5622;SDS011;2833;50.432;10.706;2023-04-01T22:55:17;1.10;;;1.10;;
5622;SDS011;2833;50.432;10.706;2023-04-01T22:58:00;1.07;;;1.07;;
5622;SDS011;2833;50.432;10.706;2023-04-01T23:00:28;1.17;;;1.10;;
5622;SDS011;2833;50.432;10.706;2023-04-01T23:05:43;2.50;;;1.00;;
5622;SDS011;2833;50.432;10.706;2023-04-01T23:10:56;2.00;;;1.90;;
5622;SDS011;2833;50.432;10.706;2023-04-01T23:13:22;1.00;;;1.00;;
5622;SDS011;2833;50.432;10.706;2023-04-01T23:15:49;1.00;;;1.00;;
5622;SDS011;2833;50.432;10.706;2023-04-01T23:18:20;1.43;;;1.37;;
5622;SDS011;2833;50.432;10.706;2023-04-01T23:23:20;1.37;;;1.27;;
5622;SDS011;2833;50.432;10.706;2023-04-01T23:28:33;1.00;;;1.00;;
5622;SDS011;2833;50.432;10.706;2023-04-01T23:31:02;1.30;;;1.20;;
5622;SDS011;2833;50.432;10.706;2023-04-01T23:33:28;1.80;;;1.70;;
5622;SDS011;2833;50.432;10.706;2023-04-01T23:35:55;1.20;;;1.10;;
5622;SDS011;2833;50.432;10.706;2023-04-01T23:38:22;1.27;;;1.17;;
5622;SDS011;2833;50.432;10.706;2023-04-01T23:40:48;1.80;;;1.70;;
5622;SDS011;2833;50.432;10.706;2023-04-01T23:43:24;1.50;;;1.40;;
5622;SDS011;2833;50.432;10.706;2023-04-01T23:45:51;1.50;;;1.40;;
5622;SDS011;2833;50.432;10.706;2023-04-01T23:48:16;1.47;;;1.37;;
5622;SDS011;2833;50.432;10.706;2023-04-01T23:50:44;1.30;;;1.20;;
5622;SDS011;2833;50.432;10.706;2023-04-01T23:53:17;4.80;;;1.17;;
5622;SDS011;2833;50.432;10.706;2023-04-01T23:55:43;1.37;;;1.30;;
